Time;durP1;ratioP1;P1;durP2;ratioP2;P2;SDS_P1;SDS_P2;PMS_P1;PMS_P2;Temp;Humidity;BMP_temperature;BMP_pressure;BME280_temperature;BME280_humidity;BME280_pressure;Samples;Min_cycle;Max_cycle;Signal;HPM_P1;HPM_P2
2022/09/28 00:01:21;;;;;;;28.70;25.57;;;;;;;16.27;100.00;99368.45;1803960;78;21126;-90
2022/09/28 00:03:50;;;;;;;28.95;25.97;;;;;;;16.30;100.00;99364.19;1803863;79;20877;-89
2022/09/28 00:06:21;;;;;;;29.45;26.48;;;;;;;16.30;100.00;99363.69;1803997;79;20841;-91
2022/09/28 00:08:49;;;;;;;32.73;26.07;;;;;;;16.32;100.00;99366.19;1804449;79;20861;-92
2022/09/28 00:11:16;;;;;;;31.00;26.37;;;;;;;16.32;100.00;99366.19;1806281;79;20875;-89
2022/09/28 00:13:44;;;;;;;28.55;25.70;;;;;;;16.34;100.00;99370.80;1805688;79;21172;-89
2022/09/28 00:16:14;;;;;;;30.82;27.50;;;;;;;16.34;100.00;99362.39;1804077;78;20963;-90
2022/09/28 00:18:41;;;;;;;29.77;26.68;;;;;;;16.36;100.00;99352.94;1804338;78;21472;-90
2022/09/28 00:21:11;;;;;;;35.85;27.67;;;;;;;16.40;100.00;99352.96;1804105;78;20967;-89
2022/09/28 00:26:24;;;;;;;29.57;25.80;;;;;;;16.44;100.00;99356.13;1814398;79;21137;-91
2022/09/28 00:28:52;;;;;;;27.22;24.60;;;;;;;16.50;100.00;99356.81;1814306;79;20888;-89
2022/09/28 00:31:20;;;;;;;28.57;25.52;;;;;;;16.50;100.00;99356.81;1814262;79;21420;-90
2022/09/28 00:33:55;;;;;;;26.82;24.10;;;;;;;16.52;100.00;99354.33;1814313;79;20884;-91
2022/09/28 00:36:23;;;;;;;28.20;24.05;;;;;;;16.54;100.00;99351.50;1814568;79;20940;-90
2022/09/28 00:38:51;;;;;;;29.55;24.45;;;;;;;16.56;100.00;99350.38;1814253;79;21248;-90
2022/09/28 00:41:19;;;;;;;27.05;24.32;;;;;;;16.57;100.00;99355.17;1815260;78;20908;-90
2022/09/28 00:43:46;;;;;;;27.82;24.80;;;;;;;16.60;100.00;99344.25;1814193;79;20880;-91
2022/09/28 00:46:32;;;;;;;26.33;23.52;;;;;;;16.60;100.00;99344.25;1814066;79;20963;-90
2022/09/28 00:49:03;;;;;;;26.77;24.07;;;;;;;16.63;100.00;99337.80;1814023;79;20904;-89
2022/09/28 00:51:30;;;;;;;26.95;24.00;;;;;;;16.63;100.00;99334.67;1814068;79;21125;-91
2022/09/28 00:53:58;;;;;;;27.73;24.77;;;;;;;16.66;100.00;99334.34;1814102;78;20837;-90
2022/09/28 00:56:26;;;;;;;32.28;25.50;;;;;;;16.66;100.00;99334.34;1814108;79;20911;-90
2022/09/28 00:58:54;;;;;;;28.45;25.70;;;;;;;16.67;100.00;99341.27;1814449;78;20880;-90
2022/09/28 01:01:21;;;;;;;29.90;26.68;;;;;;;16.68;100.00;99344.77;1814147;79;20904;-89
2022/09/28 01:03:47;;;;;;;28.57;25.52;;;;;;;16.71;100.00;99348.41;1814176;79;21127;-89
2022/09/28 01:06:26;;;;;;;26.77;24.23;;;;;;;16.71;100.00;99348.41;1814111;79;20911;-90
2022/09/28 01:08:57;;;;;;;27.52;24.72;;;;;;;16.72;100.00;99338.17;1814111;78;20952;-89
2022/09/28 01:11:24;;;;;;;27.80;23.70;;;;;;;16.72;100.00;99337.66;1791653;79;20999;-90
2022/09/28 01:13:53;;;;;;;28.00;25.35;;;;;;;16.72;100.00;99344.78;1814169;79;21029;-89
2022/09/28 01:16:50;;;;;;;31.57;27.00;;;;;;;16.72;100.00;99346.11;1814022;79;21082;-90
2022/09/28 01:19:57;;;;;;;30.15;27.13;;;;;;;16.72;100.00;99344.28;1780833;79;20955;-90
2022/09/28 01:23:02;;;;;;;32.40;27.13;;;;;;;16.72;100.00;99349.58;1814389;79;21349;-89
2022/09/28 01:25:54;;;;;;;30.48;27.20;;;;;;;16.71;100.00;99342.61;1790667;78;21610;-89
2022/09/28 01:28:25;;;;;;;30.30;27.07;;;;;;;16.70;100.00;99344.13;1820433;78;21464;-91
2022/09/28 01:31:06;;;;;;;30.88;27.65;;;;;;;16.70;100.00;99346.77;1820923;78;21121;-86
2022/09/28 01:33:48;;;;;;;31.17;27.98;;;;;;;16.68;100.00;99340.30;1823089;78;20844;-89
2022/09/28 01:36:26;;;;;;;30.82;27.52;;;;;;;16.67;100.00;99338.63;1821942;78;20849;-90
2022/09/28 01:38:56;;;;;;;30.27;27.07;;;;;;;16.65;100.00;99341.11;1820230;78;20971;-90
2022/09/28 01:41:24;;;;;;;30.60;27.35;;;;;;;16.64;100.00;99344.77;1820229;78;20872;-89
2022/09/28 01:43:56;;;;;;;32.55;29.15;;;;;;;16.63;100.00;99353.67;1820240;78;21077;-90
2022/09/28 01:46:40;;;;;;;30.95;26.55;;;;;;;16.62;100.00;99350.20;1820098;78;20954;-87
2022/09/28 01:49:12;;;;;;;30.95;27.67;;;;;;;16.62;100.00;99339.63;1820251;78;20875;-90
2022/09/28 01:52:09;;;;;;;30.62;26.42;;;;;;;16.62;100.00;99339.63;1819967;78;20994;-88
2022/09/28 01:54:46;;;;;;;30.60;27.50;;;;;;;16.63;100.00;99336.47;1819923;78;20864;-89
2022/09/28 01:57:35;;;;;;;32.03;28.60;;;;;;;16.61;100.00;99348.56;1819851;78;21093;-89
2022/09/28 02:00:12;;;;;;;31.68;28.57;;;;;;;16.61;100.00;99348.56;1818897;78;20887;-89
2022/09/28 02:03:01;;;;;;;29.98;25.77;;;;;;;16.61;100.00;99351.69;1789818;79;20860;-89
2022/09/28 02:08:34;;;;;;;29.00;26.02;;;;;;;16.63;100.00;99359.83;1854814;76;22305;-91
2022/09/28 02:11:06;;;;;;;30.30;27.07;;;;;;;16.57;100.00;99365.25;1822481;78;20958;-90
2022/09/28 02:13:41;;;;;;;33.33;27.30;;;;;;;16.57;100.00;99363.93;1822810;78;21148;-89
2022/09/28 02:16:30;;;;;;;31.75;25.85;;;;;;;16.60;100.00;99367.25;1822434;78;20915;-91
2022/09/28 02:18:57;;;;;;;29.07;26.07;;;;;;;16.61;100.00;99371.53;1822414;78;20959;-90
2022/09/28 02:21:46;;;;;;;30.08;26.87;;;;;;;16.62;100.00;99363.95;1822297;78;20840;-89
2022/09/28 02:24:29;;;;;;;29.85;26.17;;;;;;;16.61;100.00;99356.98;1822502;78;20907;-90
2022/09/28 02:26:59;;;;;;;28.23;25.43;;;;;;;16.63;100.00;99361.62;1823468;78;21123;-89
2022/09/28 02:29:27;;;;;;;29.42;26.20;;;;;;;16.63;100.00;99365.59;1821829;78;20942;-89
2022/09/28 02:31:54;;;;;;;27.87;24.60;;;;;;;16.64;100.00;99368.58;1822538;78;20872;-90
2022/09/28 02:34:20;;;;;;;32.38;27.93;;;;;;;16.63;100.00;99370.41;1822381;78;20958;-91
2022/09/28 02:36:48;;;;;;;29.48;26.42;;;;;;;16.63;100.00;99370.41;1822474;78;20959;-89
2022/09/28 02:39:16;;;;;;;28.83;26.07;;;;;;;16.65;100.00;99371.08;1822384;78;21786;-90
2022/09/28 02:42:00;;;;;;;29.63;26.48;;;;;;;16.67;100.00;99374.87;1822261;78;20876;-90
2022/09/28 02:45:15;;;;;;;28.65;25.55;;;;;;;16.68;100.00;99383.16;1822904;78;21005;-90
2022/09/28 02:48:06;;;;;;;29.77;26.05;;;;;;;16.68;100.00;99380.52;1822572;78;28144;-91
2022/09/28 02:51:00;;;;;;;30.60;24.77;;;;;;;16.70;100.00;99374.06;1791132;78;21290;-91
2022/09/28 02:54:01;;;;;;;28.87;26.00;;;;;;;16.70;100.00;99372.73;1791139;78;20987;-90
2022/09/28 02:56:55;;;;;;;30.00;26.82;;;;;;;16.69;100.00;99369.73;1785614;78;20923;-90
2022/09/28 02:59:35;;;;;;;29.77;26.02;;;;;;;16.70;100.00;99374.06;1824438;77;21326;-91
2022/09/28 03:02:20;;;;;;;28.35;25.48;;;;;;;16.71;100.00;99378.85;1822643;78;20876;-89
2022/09/28 03:05:04;;;;;;;28.90;25.82;;;;;;;16.70;100.00;99370.59;1822560;78;20879;-91
2022/09/28 03:07:53;;;;;;;32.08;26.30;;;;;;;16.71;100.00;99381.00;1825030;78;21216;-91
2022/09/28 03:10:49;;;;;;;31.27;27.17;;;;;;;16.71;100.00;99374.38;1828207;78;20931;-86
2022/09/28 03:13:16;;;;;;;29.75;26.68;;;;;;;16.70;100.00;99373.23;1829044;77;20922;-87
2022/09/28 03:15:43;;;;;;;28.95;26.15;;;;;;;16.71;100.00;99377.53;1828408;78;20895;-88
2022/09/28 03:18:10;;;;;;;28.05;25.10;;;;;;;16.69;100.00;99381.65;1825664;78;20883;-91
2022/09/28 03:20:37;;;;;;;28.90;25.85;;;;;;;16.68;100.00;99375.22;1825197;78;21156;-91
2022/09/28 03:23:04;;;;;;;29.37;26.30;;;;;;;16.70;100.00;99375.89;1825223;77;20848;-90
2022/09/28 03:25:32;;;;;;;31.80;27.35;;;;;;;16.67;100.00;99375.69;1825241;77;20927;-90
2022/09/28 03:28:00;;;;;;;29.95;26.55;;;;;;;16.68;100.00;99389.78;1825195;77;20963;-91
2022/09/28 03:30:27;;;;;;;30.65;27.45;;;;;;;16.68;100.00;99393.75;1825312;78;20955;-92
2022/09/28 03:32:59;;;;;;;28.85;25.88;;;;;;;16.67;100.00;99398.69;1825422;78;21203;-90
2022/09/28 03:35:27;;;;;;;27.50;24.72;;;;;;;16.67;100.00;99394.72;1825489;77;20926;-93
2022/09/28 03:37:57;;;;;;;28.57;25.08;;;;;;;16.66;100.00;99395.72;1825373;77;21455;-92
2022/09/28 03:40:24;;;;;;;28.52;25.52;;;;;;;16.66;100.00;99389.11;1825506;78;21362;-92
2022/09/28 03:42:52;;;;;;;30.20;26.73;;;;;;;16.66;100.00;99387.28;1825105;78;20911;-91
2022/09/28 03:45:19;;;;;;;27.90;24.90;;;;;;;16.67;100.00;99391.57;1825141;77;21072;-91
2022/09/28 03:47:47;;;;;;;30.50;25.48;;;;;;;16.68;100.00;99392.42;1825307;78;21014;-91
2022/09/28 03:50:14;;;;;;;30.60;26.73;;;;;;;16.68;100.00;99393.75;1825632;77;20879;-91
2022/09/28 03:52:41;;;;;;;31.20;25.27;;;;;;;16.67;100.00;99388.92;1825386;78;20887;-89
2022/09/28 03:55:08;;;;;;;32.75;25.50;;;;;;;16.65;100.00;99391.41;1825460;78;20915;-91
2022/09/28 03:57:37;;;;;;;32.48;26.65;;;;;;;16.61;100.00;99387.42;1797875;78;20864;-92
2022/09/28 04:00:04;;;;;;;29.63;26.00;;;;;;;16.57;100.00;99385.11;1825525;77;20875;-91
2022/09/28 04:02:35;;;;;;;30.50;26.05;;;;;;;16.56;100.00;99393.20;1824344;78;20895;-93
2022/09/28 04:05:04;;;;;;;39.70;27.30;;;;;;;16.53;100.00;99391.70;1825208;78;20899;-93
2022/09/28 04:07:31;;;;;;;36.75;27.52;;;;;;;16.53;100.00;99391.70;1823582;77;20947;-90
2022/09/28 04:09:58;;;;;;;36.88;26.85;;;;;;;16.53;100.00;99390.38;1822312;78;20995;-92
2022/09/28 04:12:25;;;;;;;35.55;27.27;;;;;;;16.51;100.00;99392.36;1822335;78;21029;-91
2022/09/28 04:14:52;;;;;;;35.55;27.73;;;;;;;16.50;100.00;99397.83;1821939;78;20903;-93
2022/09/28 04:17:21;;;;;;;40.43;26.73;;;;;;;16.46;100.00;99403.93;1822878;78;20899;-91
2022/09/28 04:19:49;;;;;;;39.42;26.48;;;;;;;16.44;100.00;99403.25;1824583;78;21010;-91
2022/09/28 04:22:18;;;;;;;42.60;27.02;;;;;;;16.41;100.00;99402.73;1823124;77;21391;-91
2022/09/28 04:24:45;;;;;;;41.90;26.27;;;;;;;16.39;100.00;99406.88;1822850;78;20974;-91
2022/09/28 04:29:59;;;;;;;38.60;25.20;;;;;;;16.32;100.00;99431.00;1821843;78;20974;-93
2022/09/28 04:32:26;;;;;;;37.23;24.60;;;;;;;16.32;100.00;99431.00;1822569;78;20841;-91
2022/09/28 04:34:52;;;;;;;36.83;26.37;;;;;;;16.31;100.00;99431.98;1822111;78;21088;-89
2022/09/28 04:37:19;;;;;;;35.55;25.55;;;;;;;16.29;100.00;99431.30;1823035;78;20967;-90
2022/09/28 04:39:46;;;;;;;33.88;25.30;;;;;;;16.29;100.00;99440.56;1822274;78;20852;-91
2022/09/28 04:42:13;;;;;;;41.35;27.17;;;;;;;16.27;100.00;99430.13;1822211;78;20923;-91
2022/09/28 04:44:41;;;;;;;42.88;29.37;;;;;;;16.25;100.00;99427.31;1821858;78;21001;-93
2022/09/28 04:47:09;;;;;;;35.08;25.05;;;;;;;16.24;100.00;99427.81;1821978;78;21209;-91
2022/09/28 04:49:53;;;;;;;46.37;30.05;;;;;;;16.23;100.00;99422.67;1821923;78;21350;-91
2022/09/28 04:52:22;;;;;;;36.55;26.55;;;;;;;16.23;100.00;99418.70;1821101;78;20868;-93
2022/09/28 04:54:48;;;;;;;43.38;29.45;;;;;;;16.22;100.00;99411.27;1821874;78;20946;-90
2022/09/28 04:57:16;;;;;;;40.52;25.88;;;;;;;16.22;100.00;99408.62;1821766;78;20863;-90
2022/09/28 04:59:45;;;;;;;46.28;29.23;;;;;;;16.21;100.00;99410.95;1822000;78;21280;-91
2022/09/28 05:02:13;;;;;;;43.00;28.57;;;;;;;16.19;100.00;99409.45;1822305;78;20879;-91
2022/09/28 05:04:57;;;;;;;46.30;31.05;;;;;;;16.19;100.00;99416.88;1743022;82;20939;-93
2022/09/28 05:07:44;;;;;;;50.52;31.52;;;;;;;16.17;100.00;99409.59;1694592;83;20964;-93
2022/09/28 05:10:11;;;;;;;45.15;31.60;;;;;;;16.16;100.00;99404.81;1695102;84;21461;-91
2022/09/28 05:12:39;;;;;;;51.08;31.10;;;;;;;16.11;100.00;99424.77;1661196;85;21250;-91
2022/09/28 05:15:06;;;;;;;51.02;31.60;;;;;;;16.11;100.00;99424.77;1661052;86;20927;-92
2022/09/28 05:17:34;;;;;;;46.55;29.52;;;;;;;16.06;100.00;99437.64;1661359;86;20923;-92
2022/09/28 05:20:04;;;;;;;52.17;29.57;;;;;;;16.07;100.00;99446.72;1659500;86;21400;-92
2022/09/28 05:22:32;;;;;;;52.90;31.15;;;;;;;16.06;100.00;99444.25;1660734;86;20966;-91
2022/09/28 05:24:59;;;;;;;50.58;31.85;;;;;;;16.05;100.00;99445.22;1660750;86;21021;-91
2022/09/28 05:27:27;;;;;;;55.45;33.48;;;;;;;16.05;100.00;99450.51;1741845;82;20956;-91
2022/09/28 05:29:55;;;;;;;51.95;32.50;;;;;;;16.02;100.00;99438.43;1693950;84;21529;-91
2022/09/28 05:32:43;;;;;;;51.65;32.03;;;;;;;16.04;100.00;99447.55;1693818;84;20932;-92
2022/09/28 05:35:20;;;;;;;50.78;31.82;;;;;;;16.01;99.50;99447.36;1658962;86;20939;-91
2022/09/28 05:37:48;;;;;;;40.70;28.45;;;;;;;16.01;99.50;99447.36;1660355;86;21081;-92
2022/09/28 05:40:16;;;;;;;47.35;29.37;;;;;;;16.03;99.71;99459.94;1737210;82;20882;-92
2022/09/28 05:42:43;;;;;;;45.55;28.87;;;;;;;15.99;99.39;99448.52;1758094;77;20958;-93
2022/09/28 05:45:10;;;;;;;42.95;27.98;;;;;;;15.95;99.26;99444.02;1784674;78;20937;-92
2022/09/28 05:47:41;;;;;;;43.45;27.40;;;;;;;15.95;99.26;99444.02;1821742;78;20971;-92
2022/09/28 05:50:11;;;;;;;40.50;27.32;;;;;;;15.94;99.20;99439.23;1821840;78;21226;-91
2022/09/28 05:52:42;;;;;;;43.05;29.85;;;;;;;15.92;99.22;99443.84;1790432;78;20927;-90
2022/09/28 05:55:09;;;;;;;40.38;24.77;;;;;;;15.93;99.30;99448.62;1822137;78;20967;-90
2022/09/28 05:57:37;;;;;;;38.15;26.55;;;;;;;15.91;99.33;99452.73;1821881;78;20926;-91
2022/09/28 06:00:07;;;;;;;28.90;23.25;;;;;;;15.90;99.27;99449.77;1821990;78;20860;-93
2022/09/28 06:02:38;;;;;;;35.63;23.77;;;;;;;15.94;99.08;99454.23;1821564;78;21270;-89
2022/09/28 06:05:06;;;;;;;28.32;21.05;;;;;;;15.94;98.82;99447.16;1790413;78;20852;-91
2022/09/28 06:07:34;;;;;;;30.35;21.12;;;;;;;15.94;98.49;99447.63;1822665;78;20891;-91
2022/09/28 06:10:02;;;;;;;28.42;20.43;;;;;;;15.92;98.18;99448.30;1792008;78;20943;-90
2022/09/28 06:12:34;;;;;;;29.07;19.75;;;;;;;15.87;97.96;99456.67;1821740;78;20860;-90
2022/09/28 06:15:05;;;;;;;29.42;20.97;;;;;;;15.86;97.87;99461.64;1822651;78;20851;-92
2022/09/28 06:17:32;;;;;;;30.77;20.40;;;;;;;15.84;97.70;99458.81;1791296;78;21393;-91
2022/09/28 06:20:13;;;;;;;26.02;19.60;;;;;;;15.80;97.63;99450.84;1747859;80;20994;-92
2022/09/28 06:22:54;;;;;;;24.95;19.05;;;;;;;15.74;97.56;99458.42;1746547;82;20990;-92
2022/09/28 06:25:26;;;;;;;31.10;19.77;;;;;;;15.72;97.55;99456.42;1748187;81;20947;-91
2022/09/28 06:28:00;;;;;;;25.23;19.77;;;;;;;15.64;97.46;99452.36;1748150;80;20884;-92
2022/09/28 06:30:31;;;;;;;27.07;18.55;;;;;;;15.64;97.46;99452.36;1722110;82;21057;-90
2022/09/28 06:32:59;;;;;;;24.85;18.42;;;;;;;15.64;97.83;99461.61;1748210;81;21516;-93
2022/09/28 06:35:29;;;;;;;26.33;17.85;;;;;;;15.64;97.93;99467.39;1748219;82;20856;-91
2022/09/28 06:37:57;;;;;;;21.15;17.27;;;;;;;15.63;98.10;99463.92;1747199;82;21380;-92
2022/09/28 06:40:24;;;;;;;24.75;18.02;;;;;;;15.64;98.12;99464.25;1747194;82;21302;-91
2022/09/28 06:43:09;;;;;;;24.47;19.10;;;;;;;15.67;97.56;99461.78;1747656;82;20923;-91
2022/09/28 06:45:37;;;;;;;22.70;18.02;;;;;;;15.67;97.56;99461.78;1704750;82;20938;-92
2022/09/28 06:48:06;;;;;;;24.02;17.90;;;;;;;15.69;98.25;99468.57;1744093;82;20986;-90
2022/09/28 06:50:41;;;;;;;22.50;17.40;;;;;;;15.73;98.17;99467.81;1747341;82;21037;-91
2022/09/28 06:53:27;;;;;;;22.22;15.28;;;;;;;15.78;97.98;99482.72;1743868;82;23582;-91
2022/09/28 06:56:06;;;;;;;20.27;14.55;;;;;;;15.82;97.62;99487.22;1754233;78;20903;-91
2022/09/28 06:58:31;;;;;;;15.88;13.05;;;;;;;15.83;97.28;99488.39;1820499;78;21452;-90
2022/09/28 07:01:00;;;;;;;17.05;13.08;;;;;;;15.86;96.82;99489.89;1823309;78;20963;-92
2022/09/28 07:03:28;;;;;;;16.82;13.32;;;;;;;15.85;96.51;99483.78;1824381;78;20966;-92
2022/09/28 07:05:58;;;;;;;16.42;12.82;;;;;;;15.85;96.17;99480.28;1820054;77;21115;-92
2022/09/28 07:08:45;;;;;;;14.78;12.50;;;;;;;15.86;95.85;99481.47;1819534;78;21340;-94
2022/09/28 07:11:27;;;;;;;17.37;12.82;;;;;;;15.88;95.82;99481.32;1800604;78;20868;-94
2022/09/28 07:14:05;;;;;;;18.25;13.20;;;;;;;16.00;95.39;99483.21;1821728;78;20930;-93
2022/09/28 07:16:32;;;;;;;15.28;11.83;;;;;;;16.00;95.39;99483.21;1824442;78;21432;-89
2022/09/28 07:18:59;;;;;;;15.80;11.90;;;;;;;16.07;95.40;99481.09;1825077;78;21190;-91
2022/09/28 07:21:26;;;;;;;15.90;11.43;;;;;;;16.13;95.14;99488.42;1824955;78;20852;-91
2022/09/28 07:23:53;;;;;;;14.78;11.03;;;;;;;16.26;94.84;99488.51;1791892;78;20848;-93
2022/09/28 07:26:22;;;;;;;12.80;9.88;;;;;;;16.26;94.84;99488.51;1822923;78;20927;-93
2022/09/28 07:28:52;;;;;;;13.25;9.58;;;;;;;16.30;94.05;99485.89;1821365;78;20931;-96
2022/09/28 07:31:39;;;;;;;11.83;10.03;;;;;;;16.34;93.49;99488.53;1823273;78;21138;-94
2022/09/28 07:34:07;;;;;;;12.90;11.08;;;;;;;16.37;93.03;99494.35;1809825;78;20888;-93
2022/09/28 07:36:37;;;;;;;14.38;12.65;;;;;;;16.40;92.63;99501.64;1814008;78;20871;-93
2022/09/28 07:39:05;;;;;;;14.00;11.22;;;;;;;16.39;92.57;99496.03;1822544;78;20856;-92
2022/09/28 07:41:32;;;;;;;16.27;11.63;;;;;;;16.38;92.46;99495.17;1823275;78;20911;-92
2022/09/28 07:44:04;;;;;;;14.65;12.95;;;;;;;16.43;91.86;99502.17;1822765;78;22727;-91
2022/09/28 07:46:36;;;;;;;17.12;12.20;;;;;;;16.43;91.86;99502.17;1822129;78;21467;-93
2022/09/28 07:49:04;;;;;;;14.35;12.13;;;;;;;16.45;91.20;99492.73;1822155;78;21373;-91
2022/09/28 07:51:36;;;;;;;14.35;11.95;;;;;;;16.47;91.00;99487.61;1819254;78;20857;-93
2022/09/28 07:54:07;;;;;;;13.32;12.03;;;;;;;16.52;90.82;99497.25;1820020;78;20856;-92
2022/09/28 07:56:35;;;;;;;15.35;12.28;;;;;;;16.56;90.36;99498.59;1822096;78;21226;-93
2022/09/28 07:59:06;;;;;;;19.23;14.35;;;;;;;16.60;90.23;99493.80;1801541;78;20880;-94
2022/09/28 08:01:39;;;;;;;17.20;12.70;;;;;;;16.66;90.24;99489.70;1822608;78;20908;-94
2022/09/28 08:04:09;;;;;;;15.78;12.47;;;;;;;16.72;90.00;99483.77;1823318;78;21019;-93
2022/09/28 08:06:39;;;;;;;14.20;12.70;;;;;;;16.79;89.69;99488.76;1823351;78;21323;-92
2022/09/28 08:09:05;;;;;;;12.75;11.45;;;;;;;16.85;89.25;99490.80;1825284;78;23351;-92
2022/09/28 08:11:34;;;;;;;16.40;13.60;;;;;;;16.91;89.02;99495.44;1788644;78;20888;-94
2022/09/28 08:14:02;;;;;;;13.45;12.13;;;;;;;16.97;88.88;99493.98;1798240;78;20919;-93
2022/09/28 08:16:47;;;;;;;16.07;12.82;;;;;;;17.02;88.27;99489.52;1827158;78;20892;-93
2022/09/28 08:19:17;;;;;;;12.55;11.25;;;;;;;17.06;87.93;99489.53;1825582;78;20840;-92
2022/09/28 08:21:49;;;;;;;13.50;12.05;;;;;;;17.06;87.68;99491.68;1799622;78;21155;-91
2022/09/28 08:24:17;;;;;;;14.95;12.68;;;;;;;17.07;87.35;99493.83;1827397;78;20836;-91
2022/09/28 08:26:48;;;;;;;12.45;10.90;;;;;;;17.06;87.16;99487.70;1828035;78;20885;-93
2022/09/28 08:29:18;;;;;;;15.13;12.78;;;;;;;17.06;86.97;99490.36;1828261;78;20829;-92
2022/09/28 08:31:48;;;;;;;16.85;13.60;;;;;;;17.05;86.54;99490.51;1827187;78;20864;-93
2022/09/28 08:34:36;;;;;;;14.58;13.08;;;;;;;16.99;86.35;99486.20;1828472;78;21317;-94
2022/09/28 08:37:24;;;;;;;14.78;13.32;;;;;;;17.00;86.53;99480.40;1828278;77;20962;-93
2022/09/28 08:40:19;;;;;;;15.85;13.43;;;;;;;17.01;86.41;99492.67;1828650;78;20966;-92
2022/09/28 08:43:01;;;;;;;15.58;12.80;;;;;;;17.03;86.52;99494.66;1820447;77;20950;-90
2022/09/28 08:45:45;;;;;;;15.03;13.55;;;;;;;17.09;86.60;99486.05;1828321;77;20934;-92
2022/09/28 08:48:43;;;;;;;18.12;13.50;;;;;;;17.14;86.80;99487.73;1827946;77;21113;-92
2022/09/28 08:51:32;;;;;;;15.88;14.15;;;;;;;17.27;87.03;99476.64;1826479;78;20896;-93
2022/09/28 08:54:23;;;;;;;15.28;13.58;;;;;;;17.48;87.06;99479.34;1827943;77;21310;-93
2022/09/28 08:56:54;;;;;;;15.10;13.53;;;;;;;17.64;86.18;99476.69;1827709;78;20942;-93
2022/09/28 08:59:27;;;;;;;15.30;13.53;;;;;;;17.76;85.51;99485.98;1827781;77;20840;-92
2022/09/28 09:02:02;;;;;;;16.42;13.72;;;;;;;17.84;84.76;99489.14;1826214;77;21135;-92
2022/09/28 09:04:30;;;;;;;14.73;13.20;;;;;;;17.94;84.32;99492.45;1827886;77;20927;-94
2022/09/28 09:07:36;;;;;;;17.45;13.75;;;;;;;18.02;83.70;99492.42;1775020;78;20967;-94
2022/09/28 09:10:25;;;;;;;16.05;13.10;;;;;;;18.08;83.11;99487.46;1826307;78;20852;-95
2022/09/28 09:13:17;;;;;;;15.60;14.00;;;;;;;18.12;82.36;99493.59;1799456;78;20911;-94
2022/09/28 09:16:01;;;;;;;21.35;16.40;;;;;;;18.11;82.09;99493.75;1826584;78;21397;-94
2022/09/28 09:18:58;;;;;;;19.63;17.20;;;;;;;18.07;82.02;99491.92;1808456;78;20903;-94
2022/09/28 09:21:45;;;;;;;19.57;17.55;;;;;;;18.02;82.07;99490.28;1825162;78;20884;-93
2022/09/28 09:24:43;;;;;;;20.15;18.07;;;;;;;18.00;82.54;99479.83;1826608;78;20856;-94
2022/09/28 09:27:21;;;;;;;21.97;18.52;;;;;;;17.95;82.00;99491.45;1827452;78;20883;-91
2022/09/28 09:30:15;;;;;;;20.27;18.10;;;;;;;17.91;82.37;99491.95;1827013;78;21387;-93
2022/09/28 09:33:25;;;;;;;21.48;19.35;;;;;;;17.90;82.61;99488.98;1826371;78;20911;-91
2022/09/28 09:36:00;;;;;;;22.52;20.10;;;;;;;17.89;82.41;99481.50;1822421;78;20852;-92
2022/09/28 09:38:52;;;;;;;23.40;20.88;;;;;;;17.91;82.65;99476.03;1774816;78;28106;-95
2022/09/28 09:42:17;;;;;;;21.35;19.17;;;;;;;18.02;82.72;99470.38;1827250;78;21046;-94
2022/09/28 09:45:12;;;;;;;21.27;19.12;;;;;;;18.16;82.17;99478.99;1782874;78;20994;-94
2022/09/28 09:47:52;;;;;;;30.45;20.23;;;;;;;18.30;81.82;99468.17;1824888;78;20923;-93
2022/09/28 09:50:28;;;;;;;22.82;20.43;;;;;;;18.37;81.31;99474.45;1826609;78;20963;-94
2022/09/28 09:53:25;;;;;;;26.20;20.52;;;;;;;18.46;81.06;99473.92;1828340;78;20927;-93
2022/09/28 09:55:56;;;;;;;22.15;19.42;;;;;;;18.53;80.75;99475.39;1826869;78;20931;-95
2022/09/28 09:58:32;;;;;;;22.52;20.05;;;;;;;18.61;80.63;99471.39;1824934;78;22187;-93
2022/09/28 10:01:11;;;;;;;20.95;18.85;;;;;;;18.73;80.74;99472.65;1824189;78;21025;-95
2022/09/28 10:03:48;;;;;;;20.82;18.82;;;;;;;18.88;80.06;99471.45;1795458;78;20919;-94
2022/09/28 10:06:27;;;;;;;20.85;18.32;;;;;;;19.01;79.07;99469.56;1826001;78;21256;-94
2022/09/28 10:09:17;;;;;;;19.80;17.75;;;;;;;19.12;78.47;99474.48;1798811;79;21357;-92
2022/09/28 10:11:49;;;;;;;21.35;18.82;;;;;;;19.20;77.92;99476.24;1790552;79;21304;-90
2022/09/28 10:14:24;;;;;;;21.33;19.10;;;;;;;19.23;77.28;99475.40;1817629;79;20907;-93
2022/09/28 10:16:55;;;;;;;24.23;21.02;;;;;;;19.25;77.22;99475.20;1803757;79;20908;-91
2022/09/28 10:19:51;;;;;;;20.23;18.23;;;;;;;19.33;77.01;99475.16;1817248;79;20899;-96
2022/09/28 10:22:36;;;;;;;20.82;18.73;;;;;;;19.45;76.44;99484.87;1820237;77;26417;-95
2022/09/28 10:25:08;;;;;;;19.50;17.50;;;;;;;19.51;76.11;99488.16;1818542;77;21133;-94
2022/09/28 10:27:44;;;;;;;21.80;19.15;;;;;;;19.52;75.69;99489.83;1819800;77;20959;-94
2022/09/28 10:30:24;;;;;;;20.95;18.87;;;;;;;19.49;75.22;99490.16;1815419;77;20916;-95
2022/09/28 10:32:58;;;;;;;20.02;18.00;;;;;;;19.44;75.21;99488.03;1792683;77;20943;-94
2022/09/28 10:35:32;;;;;;;26.33;20.35;;;;;;;19.37;75.44;99483.62;1791313;77;20967;-95
2022/09/28 10:38:12;;;;;;;23.42;19.98;;;;;;;19.33;75.75;99477.00;1692365;83;21092;-93
2022/09/28 10:40:59;;;;;;;21.25;19.17;;;;;;;19.35;76.04;99475.81;1701194;78;20951;-93
2022/09/28 10:44:04;;;;;;;22.75;20.50;;;;;;;19.37;76.01;99483.11;1761408;79;20937;-93
2022/09/28 10:46:26;;;;;;;23.83;21.52;;;;;;;19.44;75.87;99482.72;1780680;79;20970;-94
2022/09/28 10:49:04;;;;;;;23.62;21.12;;;;;;;19.51;75.43;99478.02;1758491;80;20999;-93
2022/09/28 10:51:52;;;;;;;23.77;21.13;;;;;;;19.55;75.36;99475.34;1773593;80;21121;31
2022/09/28 10:54:27;;;;;;;23.00;20.65;;;;;;;19.60;75.09;99480.94;1765696;81;20965;-93
2022/09/28 10:57:00;;;;;;;23.32;20.82;;;;;;;19.60;74.68;99480.94;1738960;82;20859;-94
2022/09/28 10:59:40;;;;;;;22.15;18.55;;;;;;;19.58;74.79;99477.13;1765002;81;20959;-94
2022/09/28 11:02:19;;;;;;;22.48;20.10;;;;;;;19.58;74.52;99481.63;1703411;83;20891;-94
2022/09/28 11:04:57;;;;;;;23.67;21.30;;;;;;;19.55;74.35;99482.81;1730027;82;21522;-94
2022/09/28 11:07:27;;;;;;;25.52;22.45;;;;;;;19.53;74.63;99486.14;1730035;82;21368;-95
2022/09/28 11:09:57;;;;;;;26.97;23.77;;;;;;;19.51;74.54;99488.66;1731567;82;20871;-94
2022/09/28 11:12:38;;;;;;;32.73;26.73;;;;;;;19.51;74.95;99484.16;1732501;82;20950;-94
2022/09/28 11:15:12;;;;;;;32.60;26.33;;;;;;;19.51;74.69;99485.50;1731802;82;21017;-95
2022/09/28 11:17:43;;;;;;;;;;;;;;;19.51;74.60;99496.64;1704617;82;20942;-95
2022/09/28 11:20:29;;;;;;;28.83;23.73;;;;;;;19.51;74.63;99490.81;1731597;82;20116;-93
2022/09/28 11:23:16;;;;;;;25.70;22.67;;;;;;;19.50;74.68;99497.16;1730896;82;21068;-94
2022/09/28 11:25:45;;;;;;;27.32;24.35;;;;;;;19.51;74.85;99492.14;1709895;82;20954;-94
2022/09/28 11:28:20;;;;;;;26.05;23.22;;;;;;;19.55;74.85;99497.44;1722516;82;20899;-94
2022/09/28 11:30:51;;;;;;;26.33;23.40;;;;;;;19.62;74.81;99497.55;1731092;82;22041;-94
2022/09/28 11:33:42;;;;;;;25.05;22.48;;;;;;;19.69;74.74;99490.53;1725514;82;20958;-93
2022/09/28 11:36:20;;;;;;;24.82;20.40;;;;;;;19.75;74.25;99488.50;1729599;80;20982;-94
2022/09/28 11:39:16;;;;;;;22.58;19.10;;;;;;;19.80;73.89;99490.11;1722910;82;20974;-95
2022/09/28 11:42:18;;;;;;;28.90;20.25;;;;;;;19.84;73.62;99490.59;1729772;82;21636;-92
2022/09/28 11:44:47;;;;;;;22.15;19.77;;;;;;;19.84;73.17;99495.91;1729350;82;21154;-93
2022/09/28 11:47:28;;;;;;;22.27;19.90;;;;;;;19.80;72.85;99489.28;1729720;82;21052;-93
2022/09/28 11:50:18;;;;;;;23.07;20.62;;;;;;;19.74;72.78;99492.15;1729748;82;20941;-92
2022/09/28 11:53:06;;;;;;;23.18;19.30;;;;;;;19.64;73.08;99488.89;1749880;81;21000;-94
2022/09/28 11:56:07;;;;;;;22.73;19.70;;;;;;;19.52;72.98;99484.51;1763249;80;20909;-92
2022/09/28 11:58:44;;;;;;;21.50;19.37;;;;;;;19.38;73.08;99491.40;1731698;82;21256;-92
2022/09/28 12:01:55;;;;;;;21.05;18.17;;;;;;;19.31;73.61;99489.64;1762346;80;20858;-92